Latest Weather Observations for Forrest

IDW60801

Issued at 8:03 pm WST Sunday 19 November 2017 (issued every 30 minutes, with the page automatically refreshed every 10 minutes)

About weather observations | Map of weather stations | Latest weather observations for WA | Other Formats
Station Details ID: 011052 Name: FORREST Lat: -30.85 Lon: 128.11 Height: 159.0 m
Data from the previous 72 hours. | See also: Recent months at Forrest
Date/Time
WST
Temp
°C
App
Temp
°C
Dew
Point
°C
Rel
Hum
%
Delta-T
°C
Wind Press
QNH
hPa
Press
MSL
hPa
Rain since
9am
mm
Dir  Spd
km/h
Gust
km/h
Spd
kts
Gust
kts
19/08:00pm 20.1 19.9 17.5 85 1.6 ESE 15 19 8 10 1011.8 - 2.0
19/07:30pm 20.6 19.4 17.6 83 1.9 SE 20 26 11 14 1011.5 - 2.0
19/07:00pm 21.3 19.8 17.7 80 2.2 SE 22 28 12 15 1011.0 - 2.0
19/06:30pm 22.3 21.8 17.7 75 2.9 SE 17 24 9 13 1010.6 - 2.0
19/06:00pm 22.9 21.7 17.6 72 3.3 SE 20 30 11 16 1010.1 1009.6 2.0
19/05:30pm 23.7 22.1 17.4 68 3.9 SSE 22 30 12 16 1009.6 - 2.0
19/05:00pm 24.3 22.1 17.8 67 4.1 SSE 26 35 14 19 1009.1 - 2.0
19/04:30pm 25.4 23.3 18.1 64 4.6 SSE 26 35 14 19 1008.6 - 2.0
19/04:00pm 25.3 23.9 18.7 67 4.2 S 24 35 13 19 1008.2 - 2.0
19/03:30pm 26.7 25.8 18.3 60 5.4 S 20 33 11 18 1007.8 - 2.0
19/03:00pm 26.2 23.4 18.1 61 5.2 S 30 39 16 21 1007.7 1007.2 2.0
19/02:30pm 27.5 25.8 19.0 59 5.5 S 26 39 14 21 1007.4 - 2.0
19/02:00pm 27.6 26.2 18.9 59 5.6 SSW 24 37 13 20 1007.2 - 2.0
19/01:30pm 27.9 25.9 16.5 50 7.1 SW 22 35 12 19 1007.4 - 2.0
19/01:00pm 27.7 24.6 15.7 48 7.4 SW 26 35 14 19 1007.5 - 2.0
19/12:30pm 26.3 25.3 18.9 63 4.8 SW 22 35 12 19 1007.6 - 2.0
19/12:00pm 24.5 24.7 20.2 77 2.8 SW 19 30 10 16 1007.8 1007.3 2.0
19/11:30am 22.8 21.1 19.0 79 2.4 WSW 26 32 14 17 1008.2 - 2.0
19/11:00am 22.5 20.8 19.9 85 1.7 WSW 28 33 15 18 1008.4 - 2.0
19/10:30am 21.8 20.3 21.0 95 0.5 WSW 30 35 16 19 1008.6 - 2.0
19/10:00am 20.7 18.2 19.7 94 0.6 W 32 41 17 22 1008.6 - 1.8
19/09:30am 23.9 23.9 20.2 80 2.4 N 20 26 11 14 1008.3 - 0.0
19/09:00am 24.0 22.8 20.1 79 2.5 N 26 33 14 18 1008.5 1008.0 5.8
19/08:30am 24.1 23.5 20.4 80 2.4 N 24 32 13 17 1008.5 - 5.8
19/08:00am 24.1 22.5 20.0 78 2.7 N 28 35 15 19 1008.7 - 5.8
19/07:30am 23.9 22.9 20.4 81 2.3 N 26 33 14 18 1008.6 - 5.8
19/07:00am 22.5 21.5 19.7 84 1.8 N 24 28 13 15 1008.9 - 5.8
19/06:30am 21.3 21.1 19.4 89 1.2 NNE 19 24 10 13 1008.7 - 5.8
19/06:00am 20.1 19.5 18.8 92 0.8 NE 20 28 11 15 1008.4 1007.9 5.8
19/05:30am 19.6 18.0 18.3 92 0.8 NE 24 30 13 16 1007.9 - 5.8
19/05:00am 19.3 16.8 18.1 93 0.7 NE 28 35 15 19 1007.8 - 5.8
19/04:30am 19.0 17.3 18.0 94 0.6 NE 24 30 13 16 1007.7 - 5.8
19/04:00am 19.1 16.6 18.1 94 0.6 NE 28 33 15 18 1007.6 - 5.8
19/03:30am 19.1 16.6 18.1 94 0.6 NE 28 33 15 18 1007.0 - 5.8
19/03:00am 19.1 17.0 18.1 94 0.6 NE 26 32 14 17 1007.2 1006.7 5.8
19/02:30am 19.0 18.2 18.0 94 0.6 E 19 26 10 14 1007.5 - 5.8
19/02:00am 19.1 19.1 18.1 94 0.6 NNE 15 17 8 9 1008.8 - 5.8
19/01:30am 19.3 21.4 18.1 93 0.7 WNW 4 7 2 4 1008.1 - 5.8
19/01:00am 19.2 18.8 18.0 93 0.7 ENE 17 28 9 15 1008.2 - 5.8
19/12:30am 18.9 18.4 17.9 94 0.6 ENE 17 20 9 11 1008.1 - 5.8
19/12:00am 18.7 16.4 17.5 93 0.7 E 26 33 14 18 1007.3 1006.8 5.8
 
Date/Time
WST
Temp
°C
App
Temp
°C
Dew
Point
°C
Rel
Hum
%
Delta-T
°C
Wind Press
QNH
hPa
Press
MSL
hPa
Rain since
9am
mm
Dir  Spd
km/h
Gust
km/h
Spd
kts
Gust
kts
18/11:30pm 18.9 15.9 17.7 93 0.7 E 30 37 16 20 1007.9 - 5.8
18/11:00pm 19.1 15.2 17.8 92 0.8 E 35 43 19 23 1007.6 - 5.8
18/10:30pm 19.1 13.5 17.9 93 0.7 E 44 52 24 28 1007.5 - 5.8
18/10:00pm 18.8 13.1 17.6 93 0.7 E 44 54 24 29 1007.9 - 5.8
18/09:30pm 18.9 13.3 17.4 91 0.9 E 43 65 23 35 1007.9 - 5.8
18/09:21pm 19.3 15.3 17.6 90 1.0 E 35 56 19 30 1009.0 - 5.6
18/09:00pm 19.1 15.4 17.4 90 1.0 E 33 43 18 23 1010.0 1009.5 4.6
18/08:49pm 19.3 14.3 17.1 87 1.3 E 39 57 21 31 1009.1 - 4.6
18/08:30pm 19.4 14.7 16.8 85 1.6 E 37 52 20 28 1008.4 - 4.6
18/08:00pm 19.6 13.4 16.4 82 1.9 SE 44 54 24 29 1007.9 - 4.6
18/07:30pm 19.6 14.7 16.4 82 1.9 SSE 37 54 20 29 1008.0 - 4.6
18/07:00pm 19.3 14.0 16.3 83 1.8 SSE 39 59 21 32 1007.9 - 4.4
18/06:41pm 20.1 14.7 16.1 78 2.4 S 39 57 21 31 1008.4 - 4.0
18/06:38pm 20.3 15.8 16.3 78 2.4 S 35 52 19 28 1008.2 - 3.8
18/06:30pm 20.3 15.5 16.7 80 2.2 SSW 37 50 20 27 1009.1 - 3.8
18/06:19pm 20.8 15.6 16.6 77 2.6 SSW 39 65 21 35 1008.6 - 3.6
18/06:00pm 21.2 15.8 17.0 77 2.6 SSW 41 54 22 29 1006.7 1006.2 3.2
18/05:42pm 21.7 17.1 17.9 79 2.4 S 39 74 21 40 1006.1 - 3.2
18/05:30pm 21.6 13.8 18.6 83 1.9 SSW 57 78 31 42 1004.9 - 3.0
18/05:22pm 20.4 13.2 18.5 89 1.2 SW 54 106 29 57 1004.9 - 2.8
18/05:21pm 20.3 13.2 18.8 91 0.9 SW 54 106 29 57 1004.7 - 2.6
18/05:11pm 18.9 4.2 15.6 81 2.0 SW 87 115 47 62 1003.1 - 1.2
18/05:06pm 23.5 14.3 15.0 59 5.1 SW 57 102 31 55 1004.2 - 0.0
18/05:03pm 25.8 11.5 13.0 45 7.5 WSW 80 102 43 55 1004.2 - 0.0
18/05:01pm 26.9 10.8 11.4 38 8.9 W 87 102 47 55 1004.2 - 0.0
18/05:00pm 27.4 14.5 10.6 35 9.5 W 69 102 37 55 1003.8 - 0.0
18/04:58pm 30.3 19.2 8.7 26 12.1 W 57 85 31 46 1004.0 - 0.0
18/04:55pm 36.4 30.1 9.1 19 15.8 ENE 32 43 17 23 1001.9 - 0.0
18/04:30pm 36.8 29.1 8.6 18 16.2 NE 39 50 21 27 999.7 - 0.0
18/04:00pm 37.5 30.7 9.2 18 16.4 NE 35 44 19 24 1000.3 - 0.0
18/03:30pm 37.9 31.3 8.6 17 16.9 NE 33 44 18 24 1000.8 - 0.0
18/03:00pm 39.0 30.3 7.7 15 18.0 NE 43 59 23 32 1001.0 1000.5 0.0
18/02:30pm 38.4 30.8 9.0 17 17.1 NE 39 50 21 27 1002.1 - 0.0
18/02:00pm 38.3 29.7 9.0 17 17.0 NE 44 63 24 34 1002.9 - 0.0
18/01:30pm 39.2 29.7 9.7 17 17.4 NE 50 69 27 37 1003.6 - 0.0
18/01:22pm 38.5 28.8 9.1 17 17.1 NE 50 69 27 37 1003.7 - 0.0
18/01:00pm 39.1 28.9 8.7 16 17.7 NE 52 67 28 36 1004.2 - 0.0
18/12:50pm 39.4 29.5 9.8 17 17.5 NE 52 63 28 34 1004.5 - 0.0
18/12:33pm 39.8 32.0 8.3 15 18.2 N 39 57 21 31 1004.5 - 0.0
18/12:30pm 39.9 31.7 8.4 15 18.3 N 41 57 22 31 1004.6 - 0.0
18/12:26pm 39.6 32.4 9.1 16 17.9 N 37 56 20 30 1004.7 - 0.0
18/12:00pm 38.4 31.4 9.9 18 16.8 NNE 37 48 20 26 1005.4 1004.8 0.0
18/11:30am 37.0 29.1 7.9 17 16.6 NNE 39 52 21 28 1005.9 - 0.0
18/11:00am 36.1 29.6 8.0 18 15.9 NNE 32 41 17 22 1006.1 - 0.0
18/10:30am 36.3 29.6 7.4 17 16.3 NNE 32 39 17 21 1006.2 - 0.0
18/10:00am 35.0 27.9 7.9 19 15.3 NNE 35 44 19 24 1006.7 - 0.0
18/09:30am 33.8 27.0 7.7 20 14.6 NNE 33 41 18 22 1006.9 - 0.0
18/09:00am 34.0 26.3 7.1 19 14.9 NNE 37 48 20 26 1007.0 1006.5 0.0
18/08:30am 32.5 25.2 7.4 21 13.9 NNE 35 46 19 25 1007.3 - 0.0
18/08:00am 30.8 23.7 6.6 22 13.1 NNE 33 39 18 21 1007.7 - 0.0
18/07:30am 28.8 21.3 6.2 24 12.0 NNE 35 46 19 25 1007.6 - 0.0
18/07:00am 29.6 21.3 6.3 23 12.4 NNE 39 50 21 27 1007.5 - 0.0
18/06:30am 28.7 21.2 6.1 24 12.0 NNE 35 48 19 26 1007.3 - 0.0
18/06:00am 25.7 20.1 5.3 27 10.5 NE 24 33 13 18 1007.6 1007.1 0.0
18/05:30am 23.6 17.4 4.5 29 9.5 NE 26 32 14 17 1008.1 - 0.0
18/05:00am 23.7 17.1 4.1 28 9.7 NE 28 37 15 20 1008.0 - 0.0
18/04:30am 23.3 16.2 3.8 28 9.6 NNE 30 39 16 21 1007.8 - 0.0
18/04:00am 22.7 15.6 3.8 29 9.3 ENE 30 39 16 21 1007.1 - 0.0
18/03:30am 22.8 16.1 3.4 28 9.4 ENE 28 35 15 19 1007.6 - 0.0
18/03:00am 22.7 17.7 3.8 29 9.3 ENE 19 24 10 13 1007.9 1007.4 0.0
18/02:30am 22.9 18.0 3.9 29 9.3 NE 19 26 10 14 1008.1 - 0.0
18/02:00am 23.0 16.7 3.5 28 9.5 NE 26 33 14 18 1007.7 - 0.0
18/01:30am 22.9 15.4 3.4 28 9.5 NE 32 37 17 20 1007.5 - 0.0
18/01:00am 22.4 15.1 4.5 31 8.9 ENE 32 39 17 21 1007.6 - 0.0
18/12:30am 21.8 14.7 5.7 35 8.1 ENE 32 41 17 22 1007.8 - 0.0
18/12:00am 21.6 14.7 6.3 37 7.8 ENE 32 39 17 21 1008.0 1007.5 0.0
 
Date/Time
WST
Temp
°C
App
Temp
°C
Dew
Point
°C
Rel
Hum
%
Delta-T
°C
Wind Press
QNH
hPa
Press
MSL
hPa
Rain since
9am
mm
Dir  Spd
km/h
Gust
km/h
Spd
kts
Gust
kts
17/11:30pm 21.6 15.1 6.7 38 7.6 ENE 30 37 16 20 1008.6 - 0.0
17/11:00pm 21.2 14.8 7.1 40 7.3 E 30 37 16 20 1008.9 - 0.0
17/10:30pm 21.4 14.7 7.3 40 7.3 E 32 37 17 20 1009.2 - 0.0
17/10:00pm 21.8 15.2 7.6 40 7.4 E 32 39 17 21 1009.4 - 0.0
17/09:30pm 22.3 15.2 8.1 40 7.5 E 35 44 19 24 1009.4 - 0.0
17/09:00pm 22.9 16.3 8.6 40 7.7 E 33 41 18 22 1009.6 1009.1 0.0
17/08:30pm 23.9 17.4 8.3 37 8.4 E 32 39 17 21 1009.5 - 0.0
17/08:00pm 25.1 18.3 7.7 33 9.3 E 33 43 18 23 1009.3 - 0.0
17/07:30pm 27.3 20.7 6.1 26 11.1 E 30 41 16 22 1008.9 - 0.0
17/07:00pm 28.8 22.6 4.3 21 12.6 E 26 30 14 16 1008.6 - 0.0
17/06:30pm 29.8 24.0 4.4 20 13.2 E 24 28 13 15 1008.6 - 0.0
17/06:00pm 31.3 26.1 3.4 17 14.4 E 20 24 11 13 1008.7 1008.2 0.0
17/05:30pm 32.9 27.7 3.8 16 15.2 E 20 26 11 14 1008.5 - 0.0
17/05:00pm 33.6 29.5 4.3 16 15.5 E 15 20 8 11 1008.3 - 0.0
17/04:30pm 34.0 29.2 4.6 16 15.6 E 19 26 10 14 1008.3 - 0.0
17/04:00pm 33.9 28.9 4.6 16 15.6 ENE 20 28 11 15 1008.4 - 0.0
17/03:30pm 34.3 29.9 4.9 16 15.8 E 17 28 9 15 1008.4 - 0.0
17/03:00pm 33.4 28.9 4.2 16 15.4 NE 17 28 9 15 1008.7 1008.2 0.0
17/02:30pm 33.8 29.5 5.4 17 15.3 NE 17 26 9 14 1009.0 - 0.0
17/02:00pm 33.7 29.0 6.1 18 15.0 ENE 20 33 11 18 1009.2 - 0.0
17/01:30pm 33.1 28.3 5.6 18 14.8 ENE 20 56 11 30 1009.6 - 0.0
17/01:00pm 32.7 27.6 6.1 19 14.4 N 22 35 12 19 1010.1 - 0.0
17/12:30pm 31.2 26.2 6.3 21 13.4 NE 22 33 12 18 1010.7 - 0.0
17/12:00pm 31.5 26.3 7.2 22 13.3 NNE 24 39 13 21 1011.1 1010.7 0.0
17/11:30am 30.2 24.7 7.4 24 12.4 NNE 26 35 14 19 1011.6 - 0.0
17/11:00am 29.4 24.2 7.3 25 12.0 NNE 24 33 13 18 1012.0 - 0.0
17/10:30am 28.1 21.9 6.2 25 11.6 ENE 28 39 15 21 1012.5 - 0.0
17/10:00am 27.2 20.2 6.0 26 11.1 ENE 32 41 17 22 1012.8 - 0.0
17/09:30am 25.5 19.3 6.2 29 10.1 NE 28 37 15 20 1013.6 - 0.0
17/09:00am 23.8 17.3 6.6 33 8.9 NE 30 35 16 19 1013.8 1013.3 0.0
17/08:30am 22.4 16.0 7.0 37 8.0 NE 30 37 16 20 1014.1 - 0.0
17/08:00am 20.8 14.9 7.4 42 6.9 ENE 28 37 15 20 1014.6 - 0.0
17/07:30am 18.8 13.0 7.9 49 5.6 ENE 28 37 15 20 1015.2 - 0.0
17/07:00am 17.0 10.5 8.2 56 4.5 ENE 32 37 17 20 1015.3 - 0.0
17/06:30am 15.1 9.4 8.3 64 3.5 ENE 28 35 15 19 1015.5 - 0.0
17/06:00am 13.4 6.9 8.3 71 2.6 ENE 32 39 17 21 1015.2 1014.7 0.0
17/05:30am 11.9 6.1 8.0 77 1.9 ENE 28 33 15 18 1015.2 - 0.0
17/05:00am 10.7 6.4 7.8 82 1.4 ENE 20 26 11 14 1015.2 - 0.0
17/04:30am 10.0 5.6 7.6 85 1.2 ENE 20 26 11 14 1015.1 - 0.0
17/04:00am 10.0 5.6 7.4 84 1.2 ENE 20 26 11 14 1015.1 - 0.0
17/03:30am 10.4 6.0 7.6 83 1.4 E 20 26 11 14 1015.2 - 0.0
17/03:00am 10.6 6.3 7.7 82 1.4 ENE 20 26 11 14 1015.4 1014.9 0.0
17/02:30am 10.9 5.9 8.0 82 1.4 E 24 30 13 16 1015.2 - 0.0
17/02:00am 11.3 5.9 8.2 81 1.5 E 26 32 14 17 1015.3 - 0.0
17/01:30am 11.4 5.7 8.3 81 1.5 E 28 33 15 18 1015.4 - 0.0
17/01:00am 11.7 6.4 8.4 80 1.6 E 26 32 14 17 1015.9 - 0.0
17/12:30am 11.9 6.2 8.4 79 1.7 E 28 33 15 18 1016.2 - 0.0
17/12:00am 12.1 6.4 8.4 78 1.8 E 28 33 15 18 1016.6 1016.2 0.0
 
Date/Time
WST
Temp
°C
App
Temp
°C
Dew
Point
°C
Rel
Hum
%
Delta-T
°C
Wind Press
QNH
hPa
Press
MSL
hPa
Rain since
9am
mm
Dir  Spd
km/h
Gust
km/h
Spd
kts
Gust
kts
16/11:30pm 12.4 6.3 8.3 76 2.0 E 30 35 16 19 1016.8 - 0.0
16/11:00pm 12.6 6.2 8.5 76 2.1 E 32 37 17 20 1016.9 - 0.0
16/10:30pm 13.0 6.6 8.5 74 2.3 E 32 41 17 22 1017.4 - 0.0
16/10:00pm 13.4 6.8 8.7 73 2.4 ESE 33 44 18 24 1017.4 - 0.0
16/09:30pm 13.8 7.4 8.6 71 2.6 ESE 32 39 17 21 1017.7 - 0.0
16/09:00pm 14.3 8.1 8.0 66 3.2 ESE 30 37 16 20 1017.9 1017.5 0.0
16/08:30pm 14.9 9.0 7.7 62 3.6 ESE 28 35 15 19 1017.8 - 0.0

Other Formats:

Comma delimited format used in spreadsheet applications
http://www.bom.gov.au/fwo/IDW60801/IDW60801.95646.axf

JavaScript Object Notation format (JSON) in row-major order
http://www.bom.gov.au/fwo/IDW60801/IDW60801.95646.json